sensor_id;sensor_type;location;lat;lon;timestamp;temperature;humidity
44671;DHT22;48397;53.016;-2.260;2023-05-25T00:01:57;11.60;99.90
44671;DHT22;48397;53.016;-2.260;2023-05-25T00:04:27;11.60;99.90
44671;DHT22;48397;53.016;-2.260;2023-05-25T00:06:57;11.50;99.90
44671;DHT22;48397;53.016;-2.260;2023-05-25T00:09:25;11.50;99.90
44671;DHT22;48397;53.016;-2.260;2023-05-25T00:11:52;11.50;99.90
44671;DHT22;48397;53.016;-2.260;2023-05-25T00:14:21;11.40;99.90
44671;DHT22;48397;53.016;-2.260;2023-05-25T00:16:51;11.40;99.90
44671;DHT22;48397;53.016;-2.260;2023-05-25T00:19:19;11.50;99.90
44671;DHT22;48397;53.016;-2.260;2023-05-25T00:21:47;11.40;99.90
44671;DHT22;48397;53.016;-2.260;2023-05-25T00:24:15;11.50;99.90
44671;DHT22;48397;53.016;-2.260;2023-05-25T00:26:45;11.50;99.90
44671;DHT22;48397;53.016;-2.260;2023-05-25T00:29:13;11.50;99.90
44671;DHT22;48397;53.016;-2.260;2023-05-25T00:31:43;11.50;99.90
44671;DHT22;48397;53.016;-2.260;2023-05-25T00:34:11;11.50;99.90
44671;DHT22;48397;53.016;-2.260;2023-05-25T00:36:40;11.50;99.90
44671;DHT22;48397;53.016;-2.260;2023-05-25T00:39:10;11.60;99.90
44671;DHT22;48397;53.016;-2.260;2023-05-25T00:41:38;11.50;99.90
44671;DHT22;48397;53.016;-2.260;2023-05-25T00:44:08;15.10;99.90
44671;DHT22;48397;53.016;-2.260;2023-05-25T00:46:37;11.50;99.90
44671;DHT22;48397;53.016;-2.260;2023-05-25T00:49:05;11.60;99.90
44671;DHT22;48397;53.016;-2.260;2023-05-25T00:51:36;11.60;99.90
44671;DHT22;48397;53.016;-2.260;2023-05-25T00:54:04;11.60;99.90
44671;DHT22;48397;53.016;-2.260;2023-05-25T00:56:37;11.60;99.90
44671;DHT22;48397;53.016;-2.260;2023-05-25T00:59:07;11.60;99.90
44671;DHT22;48397;53.016;-2.260;2023-05-25T01:01:37;11.60;99.90
44671;DHT22;48397;53.016;-2.260;2023-05-25T01:04:08;11.60;99.90
44671;DHT22;48397;53.016;-2.260;2023-05-25T01:06:38;11.70;99.90
44671;DHT22;48397;53.016;-2.260;2023-05-25T01:09:10;11.70;99.90
44671;DHT22;48397;53.016;-2.260;2023-05-25T01:11:41;11.70;99.90
44671;DHT22;48397;53.016;-2.260;2023-05-25T01:14:11;11.70;99.90
44671;DHT22;48397;53.016;-2.260;2023-05-25T01:16:40;11.80;99.90
44671;DHT22;48397;53.016;-2.260;2023-05-25T01:19:09;11.80;99.90
44671;DHT22;48397;53.016;-2.260;2023-05-25T01:21:52;11.90;99.90
44671;DHT22;48397;53.016;-2.260;2023-05-25T01:24:37;12.00;99.90
44671;DHT22;48397;53.016;-2.260;2023-05-25T01:30:09;12.00;99.90
44671;DHT22;48397;53.016;-2.260;2023-05-25T01:32:41;12.00;99.90
44671;DHT22;48397;53.016;-2.260;2023-05-25T01:35:10;12.10;99.90
44671;DHT22;48397;53.016;-2.260;2023-05-25T01:37:44;12.10;99.90
44671;DHT22;48397;53.016;-2.260;2023-05-25T01:40:13;12.10;99.90
44671;DHT22;48397;53.016;-2.260;2023-05-25T01:42:42;12.20;99.90
44671;DHT22;48397;53.016;-2.260;2023-05-25T01:45:11;12.20;99.90
44671;DHT22;48397;53.016;-2.260;2023-05-25T01:48:20;12.20;99.90
44671;DHT22;48397;53.016;-2.260;2023-05-25T01:50:46;12.30;99.90
44671;DHT22;48397;53.016;-2.260;2023-05-25T01:53:29;12.40;99.90
44671;DHT22;48397;53.016;-2.260;2023-05-25T01:56:01;12.40;99.90
44671;DHT22;48397;53.016;-2.260;2023-05-25T01:58:41;12.40;99.90
44671;DHT22;48397;53.016;-2.260;2023-05-25T02:01:10;12.50;99.90
44671;DHT22;48397;53.016;-2.260;2023-05-25T02:03:40;12.50;99.90
44671;DHT22;48397;53.016;-2.260;2023-05-25T02:06:09;12.50;99.90
44671;DHT22;48397;53.016;-2.260;2023-05-25T02:08:37;12.50;99.90
44671;DHT22;48397;53.016;-2.260;2023-05-25T02:11:05;12.50;99.90
44671;DHT22;48397;53.016;-2.260;2023-05-25T02:13:35;12.50;99.90
44671;DHT22;48397;53.016;-2.260;2023-05-25T02:16:03;12.60;99.90
44671;DHT22;48397;53.016;-2.260;2023-05-25T02:18:32;12.60;99.90
44671;DHT22;48397;53.016;-2.260;2023-05-25T02:21:00;12.60;99.90
44671;DHT22;48397;53.016;-2.260;2023-05-25T02:23:29;12.60;99.90
44671;DHT22;48397;53.016;-2.260;2023-05-25T02:25:57;12.60;99.90
44671;DHT22;48397;53.016;-2.260;2023-05-25T02:28:24;12.70;99.90
44671;DHT22;48397;53.016;-2.260;2023-05-25T02:30:52;12.70;99.90
44671;DHT22;48397;53.016;-2.260;2023-05-25T02:33:20;12.70;99.90
44671;DHT22;48397;53.016;-2.260;2023-05-25T02:35:50;12.60;99.90
44671;DHT22;48397;53.016;-2.260;2023-05-25T02:38:17;12.60;99.90
44671;DHT22;48397;53.016;-2.260;2023-05-25T02:40:45;12.70;99.90
44671;DHT22;48397;53.016;-2.260;2023-05-25T02:43:13;12.70;99.90
44671;DHT22;48397;53.016;-2.260;2023-05-25T02:45:41;12.60;99.90
44671;DHT22;48397;53.016;-2.260;2023-05-25T02:48:09;12.70;99.90
44671;DHT22;48397;53.016;-2.260;2023-05-25T02:50:37;12.70;99.90
44671;DHT22;48397;53.016;-2.260;2023-05-25T02:53:09;12.70;99.90
44671;DHT22;48397;53.016;-2.260;2023-05-25T02:55:38;12.60;99.90
44671;DHT22;48397;53.016;-2.260;2023-05-25T02:58:10;12.60;99.90
44671;DHT22;48397;53.016;-2.260;2023-05-25T03:00:58;12.60;99.90
44671;DHT22;48397;53.016;-2.260;2023-05-25T03:03:27;12.60;99.90
44671;DHT22;48397;53.016;-2.260;2023-05-25T03:05:56;12.60;99.90
44671;DHT22;48397;53.016;-2.260;2023-05-25T03:08:24;12.60;99.90
44671;DHT22;48397;53.016;-2.260;2023-05-25T03:10:52;12.70;99.90
44671;DHT22;48397;53.016;-2.260;2023-05-25T03:13:20;12.70;99.90
44671;DHT22;48397;53.016;-2.260;2023-05-25T03:15:49;12.70;99.90
44671;DHT22;48397;53.016;-2.260;2023-05-25T03:18:18;12.70;99.90
44671;DHT22;48397;53.016;-2.260;2023-05-25T03:20:46;12.70;99.90
44671;DHT22;48397;53.016;-2.260;2023-05-25T03:23:14;12.70;99.90
44671;DHT22;48397;53.016;-2.260;2023-05-25T03:25:42;12.60;99.90
44671;DHT22;48397;53.016;-2.260;2023-05-25T03:28:10;12.70;99.90
44671;DHT22;48397;53.016;-2.260;2023-05-25T03:30:38;12.70;99.90
44671;DHT22;48397;53.016;-2.260;2023-05-25T03:33:28;12.70;99.90
44671;DHT22;48397;53.016;-2.260;2023-05-25T03:35:56;12.70;99.90
44671;DHT22;48397;53.016;-2.260;2023-05-25T03:38:24;12.70;99.90
44671;DHT22;48397;53.016;-2.260;2023-05-25T03:40:53;12.70;99.90
44671;DHT22;48397;53.016;-2.260;2023-05-25T03:43:20;12.70;99.90
44671;DHT22;48397;53.016;-2.260;2023-05-25T03:45:48;12.70;99.90
44671;DHT22;48397;53.016;-2.260;2023-05-25T03:48:16;12.60;99.90
44671;DHT22;48397;53.016;-2.260;2023-05-25T03:50:46;12.60;99.90
44671;DHT22;48397;53.016;-2.260;2023-05-25T03:53:13;12.70;99.90
44671;DHT22;48397;53.016;-2.260;2023-05-25T03:55:41;12.60;99.90
44671;DHT22;48397;53.016;-2.260;2023-05-25T03:58:11;12.60;99.90
44671;DHT22;48397;53.016;-2.260;2023-05-25T04:00:38;12.60;99.90
44671;DHT22;48397;53.016;-2.260;2023-05-25T04:03:07;12.50;99.90
44671;DHT22;48397;53.016;-2.260;2023-05-25T04:05:37;12.60;99.90
44671;DHT22;48397;53.016;-2.260;2023-05-25T04:08:05;12.50;99.90
44671;DHT22;48397;53.016;-2.260;2023-05-25T04:10:35;12.50;99.90
44671;DHT22;48397;53.016;-2.260;2023-05-25T04:13:03;12.60;99.90
44671;DHT22;48397;53.016;-2.260;2023-05-25T04:15:30;12.60;99.90
44671;DHT22;48397;53.016;-2.260;2023-05-25T04:18:08;12.50;99.90
44671;DHT22;48397;53.016;-2.260;2023-05-25T04:20:36;12.50;99.90
44671;DHT22;48397;53.016;-2.260;2023-05-25T04:23:05;12.50;99.90
44671;DHT22;48397;53.016;-2.260;2023-05-25T04:25:34;12.50;99.90
44671;DHT22;48397;53.016;-2.260;2023-05-25T04:28:02;12.50;99.90
44671;DHT22;48397;53.016;-2.260;2023-05-25T04:30:53;12.50;99.90
44671;DHT22;48397;53.016;-2.260;2023-05-25T04:33:47;12.60;99.90
44671;DHT22;48397;53.016;-2.260;2023-05-25T04:36:28;12.60;99.90
44671;DHT22;48397;53.016;-2.260;2023-05-25T04:39:01;12.60;99.90
44671;DHT22;48397;53.016;-2.260;2023-05-25T04:41:34;12.60;99.90
44671;DHT22;48397;53.016;-2.260;2023-05-25T04:44:05;12.60;99.90
44671;DHT22;48397;53.016;-2.260;2023-05-25T04:46:44;12.60;99.90
44671;DHT22;48397;53.016;-2.260;2023-05-25T04:49:23;12.60;99.90
44671;DHT22;48397;53.016;-2.260;2023-05-25T04:51:51;12.70;99.90
44671;DHT22;48397;53.016;-2.260;2023-05-25T04:54:23;12.70;99.90
44671;DHT22;48397;53.016;-2.260;2023-05-25T04:56:54;12.70;99.90
44671;DHT22;48397;53.016;-2.260;2023-05-25T04:59:22;12.70;99.90
44671;DHT22;48397;53.016;-2.260;2023-05-25T05:01:51;15.40;99.90
44671;DHT22;48397;53.016;-2.260;2023-05-25T05:04:18;12.80;99.90
44671;DHT22;48397;53.016;-2.260;2023-05-25T05:06:47;12.70;99.90
44671;DHT22;48397;53.016;-2.260;2023-05-25T05:09:22;12.80;99.90
44671;DHT22;48397;53.016;-2.260;2023-05-25T05:11:50;12.80;99.90
44671;DHT22;48397;53.016;-2.260;2023-05-25T05:14:18;12.80;99.90
44671;DHT22;48397;53.016;-2.260;2023-05-25T05:16:47;12.80;99.90
44671;DHT22;48397;53.016;-2.260;2023-05-25T05:19:16;12.90;99.90
44671;DHT22;48397;53.016;-2.260;2023-05-25T05:21:45;12.80;99.90
44671;DHT22;48397;53.016;-2.260;2023-05-25T05:24:15;12.80;99.90
44671;DHT22;48397;53.016;-2.260;2023-05-25T05:26:44;12.90;99.90
44671;DHT22;48397;53.016;-2.260;2023-05-25T05:29:42;12.90;99.90
44671;DHT22;48397;53.016;-2.260;2023-05-25T05:34:44;13.00;99.90
44671;DHT22;48397;53.016;-2.260;2023-05-25T05:37:30;13.00;99.90
44671;DHT22;48397;53.016;-2.260;2023-05-25T05:39:58;13.00;99.90
44671;DHT22;48397;53.016;-2.260;2023-05-25T05:42:25;13.00;99.90
44671;DHT22;48397;53.016;-2.260;2023-05-25T05:44:53;13.00;99.90
44671;DHT22;48397;53.016;-2.260;2023-05-25T05:47:21;13.10;99.90
44671;DHT22;48397;53.016;-2.260;2023-05-25T05:49:49;13.10;99.90
44671;DHT22;48397;53.016;-2.260;2023-05-25T05:52:17;13.20;99.90
44671;DHT22;48397;53.016;-2.260;2023-05-25T05:54:45;13.20;99.90
44671;DHT22;48397;53.016;-2.260;2023-05-25T05:57:15;13.30;99.90
44671;DHT22;48397;53.016;-2.260;2023-05-25T05:59:43;13.30;99.90
44671;DHT22;48397;53.016;-2.260;2023-05-25T06:02:11;13.30;99.90
44671;DHT22;48397;53.016;-2.260;2023-05-25T06:04:39;13.40;99.90
44671;DHT22;48397;53.016;-2.260;2023-05-25T06:07:07;13.40;99.90
44671;DHT22;48397;53.016;-2.260;2023-05-25T06:09:35;13.40;99.90
44671;DHT22;48397;53.016;-2.260;2023-05-25T06:12:03;13.40;99.90
44671;DHT22;48397;53.016;-2.260;2023-05-25T06:14:32;12.20;99.90
44671;DHT22;48397;53.016;-2.260;2023-05-25T06:17:02;13.50;99.90
44671;DHT22;48397;53.016;-2.260;2023-05-25T06:19:30;13.50;99.90
44671;DHT22;48397;53.016;-2.260;2023-05-25T06:22:00;13.60;99.90
44671;DHT22;48397;53.016;-2.260;2023-05-25T06:24:30;13.70;99.90
44671;DHT22;48397;53.016;-2.260;2023-05-25T06:26:58;13.80;99.90
44671;DHT22;48397;53.016;-2.260;2023-05-25T06:29:26;13.80;99.90
44671;DHT22;48397;53.016;-2.260;2023-05-25T06:31:54;13.90;99.90
44671;DHT22;48397;53.016;-2.260;2023-05-25T06:34:21;13.90;99.90
44671;DHT22;48397;53.016;-2.260;2023-05-25T06:36:49;13.90;99.90
44671;DHT22;48397;53.016;-2.260;2023-05-25T06:39:17;14.00;99.90
44671;DHT22;48397;53.016;-2.260;2023-05-25T06:41:47;14.00;99.90
44671;DHT22;48397;53.016;-2.260;2023-05-25T06:44:26;14.00;99.90
44671;DHT22;48397;53.016;-2.260;2023-05-25T06:46:54;14.10;99.90
44671;DHT22;48397;53.016;-2.260;2023-05-25T06:49:22;14.10;99.90
44671;DHT22;48397;53.016;-2.260;2023-05-25T06:51:50;14.10;99.90
44671;DHT22;48397;53.016;-2.260;2023-05-25T06:54:18;14.10;99.90
44671;DHT22;48397;53.016;-2.260;2023-05-25T06:56:46;14.10;99.90
44671;DHT22;48397;53.016;-2.260;2023-05-25T06:59:16;14.10;99.90
44671;DHT22;48397;53.016;-2.260;2023-05-25T07:01:45;14.10;99.90
44671;DHT22;48397;53.016;-2.260;2023-05-25T07:04:14;14.10;99.90
44671;DHT22;48397;53.016;-2.260;2023-05-25T07:06:42;14.10;99.90
44671;DHT22;48397;53.016;-2.260;2023-05-25T07:09:09;14.20;99.90
44671;DHT22;48397;53.016;-2.260;2023-05-25T07:11:37;14.30;99.90
44671;DHT22;48397;53.016;-2.260;2023-05-25T07:14:05;14.30;99.90
44671;DHT22;48397;53.016;-2.260;2023-05-25T07:16:33;16.30;99.90
44671;DHT22;48397;53.016;-2.260;2023-05-25T07:19:01;14.30;99.90
44671;DHT22;48397;53.016;-2.260;2023-05-25T07:21:31;14.40;99.90
44671;DHT22;48397;53.016;-2.260;2023-05-25T07:24:00;14.40;99.90
44671;DHT22;48397;53.016;-2.260;2023-05-25T07:26:32;14.60;99.90
44671;DHT22;48397;53.016;-2.260;2023-05-25T07:29:00;14.60;99.90
44671;DHT22;48397;53.016;-2.260;2023-05-25T07:31:28;14.60;99.90
44671;DHT22;48397;53.016;-2.260;2023-05-25T07:33:57;14.70;99.90
44671;DHT22;48397;53.016;-2.260;2023-05-25T07:36:25;14.70;99.90
44671;DHT22;48397;53.016;-2.260;2023-05-25T07:38:52;14.70;99.90
44671;DHT22;48397;53.016;-2.260;2023-05-25T07:41:24;14.70;99.90
44671;DHT22;48397;53.016;-2.260;2023-05-25T07:43:52;14.80;99.90
44671;DHT22;48397;53.016;-2.260;2023-05-25T07:46:22;14.80;99.90
44671;DHT22;48397;53.016;-2.260;2023-05-25T07:48:52;14.90;99.90
44671;DHT22;48397;53.016;-2.260;2023-05-25T07:51:21;14.90;99.90
44671;DHT22;48397;53.016;-2.260;2023-05-25T07:53:53;14.90;99.90
44671;DHT22;48397;53.016;-2.260;2023-05-25T07:56:23;15.00;99.90
44671;DHT22;48397;53.016;-2.260;2023-05-25T07:58:51;15.00;99.90
44671;DHT22;48397;53.016;-2.260;2023-05-25T08:01:20;15.20;99.90
44671;DHT22;48397;53.016;-2.260;2023-05-25T08:03:52;15.40;99.90
44671;DHT22;48397;53.016;-2.260;2023-05-25T08:06:20;15.50;99.90
44671;DHT22;48397;53.016;-2.260;2023-05-25T08:08:48;15.50;99.90
44671;DHT22;48397;53.016;-2.260;2023-05-25T08:11:16;15.60;99.90
44671;DHT22;48397;53.016;-2.260;2023-05-25T08:13:44;15.60;99.90
44671;DHT22;48397;53.016;-2.260;2023-05-25T08:16:12;15.60;99.90
44671;DHT22;48397;53.016;-2.260;2023-05-25T08:18:42;15.80;99.90
44671;DHT22;48397;53.016;-2.260;2023-05-25T08:21:16;15.70;99.90
44671;DHT22;48397;53.016;-2.260;2023-05-25T08:23:44;16.00;99.90
44671;DHT22;48397;53.016;-2.260;2023-05-25T08:26:12;16.10;99.90
44671;DHT22;48397;53.016;-2.260;2023-05-25T08:29:00;16.10;99.90
44671;DHT22;48397;53.016;-2.260;2023-05-25T08:31:30;16.20;99.90
44671;DHT22;48397;53.016;-2.260;2023-05-25T08:34:00;16.10;99.90
44671;DHT22;48397;53.016;-2.260;2023-05-25T08:36:27;16.20;99.90
44671;DHT22;48397;53.016;-2.260;2023-05-25T08:38:56;16.10;99.90
44671;DHT22;48397;53.016;-2.260;2023-05-25T08:41:23;16.10;99.90
44671;DHT22;48397;53.016;-2.260;2023-05-25T08:43:52;16.20;99.90
44671;DHT22;48397;53.016;-2.260;2023-05-25T08:46:28;16.20;99.90
44671;DHT22;48397;53.016;-2.260;2023-05-25T08:49:12;16.20;99.90
44671;DHT22;48397;53.016;-2.260;2023-05-25T08:51:47;16.30;99.90
44671;DHT22;48397;53.016;-2.260;2023-05-25T08:54:22;16.30;99.90
44671;DHT22;48397;53.016;-2.260;2023-05-25T08:59:51;16.50;99.90
44671;DHT22;48397;53.016;-2.260;2023-05-25T09:05:19;16.60;99.90
44671;DHT22;48397;53.016;-2.260;2023-05-25T09:07:50;16.90;99.90
44671;DHT22;48397;53.016;-2.260;2023-05-25T09:10:24;17.10;99.90
44671;DHT22;48397;53.016;-2.260;2023-05-25T09:12:54;17.30;99.90
44671;DHT22;48397;53.016;-2.260;2023-05-25T09:15:22;17.30;99.90
44671;DHT22;48397;53.016;-2.260;2023-05-25T09:17:51;17.30;99.90
44671;DHT22;48397;53.016;-2.260;2023-05-25T09:20:20;17.20;99.90
44671;DHT22;48397;53.016;-2.260;2023-05-25T09:22:49;17.40;99.90
44671;DHT22;48397;53.016;-2.260;2023-05-25T09:25:18;17.60;99.90
44671;DHT22;48397;53.016;-2.260;2023-05-25T09:27:48;17.80;99.90
44671;DHT22;48397;53.016;-2.260;2023-05-25T09:30:16;17.80;99.90
44671;DHT22;48397;53.016;-2.260;2023-05-25T09:32:45;17.90;99.90
44671;DHT22;48397;53.016;-2.260;2023-05-25T09:35:13;17.90;99.90
44671;DHT22;48397;53.016;-2.260;2023-05-25T09:37:42;17.90;99.90
44671;DHT22;48397;53.016;-2.260;2023-05-25T09:40:11;17.90;99.90
44671;DHT22;48397;53.016;-2.260;2023-05-25T09:42:41;17.90;99.90
44671;DHT22;48397;53.016;-2.260;2023-05-25T09:45:09;18.00;99.90
44671;DHT22;48397;53.016;-2.260;2023-05-25T09:47:36;18.10;99.90
44671;DHT22;48397;53.016;-2.260;2023-05-25T09:50:08;18.30;99.90
44671;DHT22;48397;53.016;-2.260;2023-05-25T09:52:39;18.50;99.90
44671;DHT22;48397;53.016;-2.260;2023-05-25T09:55:08;18.70;99.90
44671;DHT22;48397;53.016;-2.260;2023-05-25T09:57:37;19.10;99.90
44671;DHT22;48397;53.016;-2.260;2023-05-25T10:00:05;19.10;99.90
44671;DHT22;48397;53.016;-2.260;2023-05-25T10:02:40;18.90;99.90
44671;DHT22;48397;53.016;-2.260;2023-05-25T10:05:08;18.80;99.90
44671;DHT22;48397;53.016;-2.260;2023-05-25T10:07:38;18.80;99.90
44671;DHT22;48397;53.016;-2.260;2023-05-25T10:10:07;19.00;99.90
44671;DHT22;48397;53.016;-2.260;2023-05-25T10:12:37;18.80;99.90
44671;DHT22;48397;53.016;-2.260;2023-05-25T10:15:10;18.20;99.90
44671;DHT22;48397;53.016;-2.260;2023-05-25T10:17:53;18.70;99.90
44671;DHT22;48397;53.016;-2.260;2023-05-25T10:20:23;18.60;99.90
44671;DHT22;48397;53.016;-2.260;2023-05-25T10:22:59;18.60;99.90
44671;DHT22;48397;53.016;-2.260;2023-05-25T10:25:39;18.60;99.90
44671;DHT22;48397;53.016;-2.260;2023-05-25T10:28:27;18.60;99.90
44671;DHT22;48397;53.016;-2.260;2023-05-25T10:30:59;18.70;99.90
44671;DHT22;48397;53.016;-2.260;2023-05-25T10:33:27;18.90;99.90
44671;DHT22;48397;53.016;-2.260;2023-05-25T10:35:57;18.90;99.90
44671;DHT22;48397;53.016;-2.260;2023-05-25T10:38:39;19.70;99.90
44671;DHT22;48397;53.016;-2.260;2023-05-25T10:41:08;18.80;99.90
44671;DHT22;48397;53.016;-2.260;2023-05-25T10:43:38;20.40;99.90
44671;DHT22;48397;53.016;-2.260;2023-05-25T10:46:08;20.30;99.90
44671;DHT22;48397;53.016;-2.260;2023-05-25T10:48:37;20.30;99.90
44671;DHT22;48397;53.016;-2.260;2023-05-25T10:51:05;20.20;99.90
44671;DHT22;48397;53.016;-2.260;2023-05-25T10:53:37;20.20;99.90
44671;DHT22;48397;53.016;-2.260;2023-05-25T10:56:07;20.00;99.90
44671;DHT22;48397;53.016;-2.260;2023-05-25T10:58:40;19.80;99.90
44671;DHT22;48397;53.016;-2.260;2023-05-25T11:01:12;19.90;99.90
44671;DHT22;48397;53.016;-2.260;2023-05-25T11:06:20;20.00;99.90
44671;DHT22;48397;53.016;-2.260;2023-05-25T11:08:58;19.90;99.90
44671;DHT22;48397;53.016;-2.260;2023-05-25T11:14:34;19.50;99.90
44671;DHT22;48397;53.016;-2.260;2023-05-25T11:17:10;19.40;99.90
44671;DHT22;48397;53.016;-2.260;2023-05-25T11:19:44;19.50;99.90
44671;DHT22;48397;53.016;-2.260;2023-05-25T11:22:34;19.50;99.90
44671;DHT22;48397;53.016;-2.260;2023-05-25T11:25:38;19.60;99.90
44671;DHT22;48397;53.016;-2.260;2023-05-25T11:28:09;19.80;99.90
44671;DHT22;48397;53.016;-2.260;2023-05-25T11:30:39;19.90;99.90
44671;DHT22;48397;53.016;-2.260;2023-05-25T11:33:08;20.10;99.90
44671;DHT22;48397;53.016;-2.260;2023-05-25T11:35:36;20.20;99.90
44671;DHT22;48397;53.016;-2.260;2023-05-25T11:38:06;20.20;99.90
44671;DHT22;48397;53.016;-2.260;2023-05-25T11:40:35;20.20;99.90
44671;DHT22;48397;53.016;-2.260;2023-05-25T11:43:08;20.20;99.90
44671;DHT22;48397;53.016;-2.260;2023-05-25T11:45:38;20.10;99.90
44671;DHT22;48397;53.016;-2.260;2023-05-25T11:48:12;20.00;99.90
44671;DHT22;48397;53.016;-2.260;2023-05-25T11:50:41;20.00;99.90
44671;DHT22;48397;53.016;-2.260;2023-05-25T11:53:10;20.00;99.90
44671;DHT22;48397;53.016;-2.260;2023-05-25T11:58:09;19.90;99.90
44671;DHT22;48397;53.016;-2.260;2023-05-25T12:00:37;19.90;99.90
44671;DHT22;48397;53.016;-2.260;2023-05-25T12:03:05;19.90;99.90
44671;DHT22;48397;53.016;-2.260;2023-05-25T12:05:37;19.80;99.90
44671;DHT22;48397;53.016;-2.260;2023-05-25T12:08:06;19.60;99.90
44671;DHT22;48397;53.016;-2.260;2023-05-25T12:10:48;19.70;99.90
44671;DHT22;48397;53.016;-2.260;2023-05-25T12:13:18;19.80;99.90
44671;DHT22;48397;53.016;-2.260;2023-05-25T12:15:46;19.70;99.90
44671;DHT22;48397;53.016;-2.260;2023-05-25T12:18:14;19.70;99.90
44671;DHT22;48397;53.016;-2.260;2023-05-25T12:20:42;19.60;99.90
44671;DHT22;48397;53.016;-2.260;2023-05-25T12:23:12;19.60;99.90
44671;DHT22;48397;53.016;-2.260;2023-05-25T12:25:42;19.60;99.90
44671;DHT22;48397;53.016;-2.260;2023-05-25T12:28:19;19.50;99.90
44671;DHT22;48397;53.016;-2.260;2023-05-25T12:30:48;19.50;99.90
44671;DHT22;48397;53.016;-2.260;2023-05-25T12:33:16;19.40;99.90
44671;DHT22;48397;53.016;-2.260;2023-05-25T12:35:46;19.40;99.90
44671;DHT22;48397;53.016;-2.260;2023-05-25T12:38:19;19.40;99.90
44671;DHT22;48397;53.016;-2.260;2023-05-25T12:41:08;17.40;99.90
44671;DHT22;48397;53.016;-2.260;2023-05-25T12:43:39;19.30;99.90
44671;DHT22;48397;53.016;-2.260;2023-05-25T12:46:10;19.30;99.90
44671;DHT22;48397;53.016;-2.260;2023-05-25T12:48:38;19.30;99.90
44671;DHT22;48397;53.016;-2.260;2023-05-25T12:51:07;19.30;99.90
44671;DHT22;48397;53.016;-2.260;2023-05-25T12:53:50;19.30;99.90
44671;DHT22;48397;53.016;-2.260;2023-05-25T12:56:18;19.30;99.90
44671;DHT22;48397;53.016;-2.260;2023-05-25T12:58:49;19.30;99.90
44671;DHT22;48397;53.016;-2.260;2023-05-25T13:01:18;19.30;99.90
44671;DHT22;48397;53.016;-2.260;2023-05-25T13:03:46;19.30;99.90
44671;DHT22;48397;53.016;-2.260;2023-05-25T13:06:15;19.40;99.90
44671;DHT22;48397;53.016;-2.260;2023-05-25T13:08:46;19.30;99.90
44671;DHT22;48397;53.016;-2.260;2023-05-25T13:11:16;19.50;99.90
44671;DHT22;48397;53.016;-2.260;2023-05-25T13:13:45;19.50;99.90
44671;DHT22;48397;53.016;-2.260;2023-05-25T13:16:13;18.60;99.90
44671;DHT22;48397;53.016;-2.260;2023-05-25T13:18:43;19.60;99.90
44671;DHT22;48397;53.016;-2.260;2023-05-25T13:21:11;19.70;99.90
44671;DHT22;48397;53.016;-2.260;2023-05-25T13:23:39;19.80;99.90
44671;DHT22;48397;53.016;-2.260;2023-05-25T13:26:07;19.70;99.90
44671;DHT22;48397;53.016;-2.260;2023-05-25T13:28:35;19.70;99.90
44671;DHT22;48397;53.016;-2.260;2023-05-25T13:31:03;19.60;99.90
44671;DHT22;48397;53.016;-2.260;2023-05-25T13:33:33;19.40;99.90
44671;DHT22;48397;53.016;-2.260;2023-05-25T13:36:02;19.20;99.90
44671;DHT22;48397;53.016;-2.260;2023-05-25T13:38:36;19.20;99.90
44671;DHT22;48397;53.016;-2.260;2023-05-25T13:41:04;19.20;99.90
44671;DHT22;48397;53.016;-2.260;2023-05-25T13:43:32;19.20;99.90
44671;DHT22;48397;53.016;-2.260;2023-05-25T13:46:00;19.20;99.90
44671;DHT22;48397;53.016;-2.260;2023-05-25T13:48:28;19.20;99.90
44671;DHT22;48397;53.016;-2.260;2023-05-25T13:50:57;19.20;99.90
44671;DHT22;48397;53.016;-2.260;2023-05-25T13:53:26;19.20;99.90
44671;DHT22;48397;53.016;-2.260;2023-05-25T13:55:54;19.20;99.90
44671;DHT22;48397;53.016;-2.260;2023-05-25T13:58:22;19.20;99.90
44671;DHT22;48397;53.016;-2.260;2023-05-25T14:00:51;19.20;99.90
44671;DHT22;48397;53.016;-2.260;2023-05-25T14:03:20;19.20;99.90
44671;DHT22;48397;53.016;-2.260;2023-05-25T14:05:49;19.20;99.90
44671;DHT22;48397;53.016;-2.260;2023-05-25T14:08:17;19.20;99.90
44671;DHT22;48397;53.016;-2.260;2023-05-25T14:10:45;19.20;99.90
44671;DHT22;48397;53.016;-2.260;2023-05-25T14:13:17;19.20;99.90
44671;DHT22;48397;53.016;-2.260;2023-05-25T14:15:45;19.20;99.90
44671;DHT22;48397;53.016;-2.260;2023-05-25T14:18:13;19.10;99.90
44671;DHT22;48397;53.016;-2.260;2023-05-25T14:20:41;19.00;99.90
44671;DHT22;48397;53.016;-2.260;2023-05-25T14:23:09;18.90;99.90
44671;DHT22;48397;53.016;-2.260;2023-05-25T14:25:42;18.90;99.90
44671;DHT22;48397;53.016;-2.260;2023-05-25T14:28:10;18.80;99.90
44671;DHT22;48397;53.016;-2.260;2023-05-25T14:30:38;18.80;99.90
44671;DHT22;48397;53.016;-2.260;2023-05-25T14:33:06;18.80;99.90
44671;DHT22;48397;53.016;-2.260;2023-05-25T14:35:34;18.70;99.90
44671;DHT22;48397;53.016;-2.260;2023-05-25T14:38:01;18.70;99.90
44671;DHT22;48397;53.016;-2.260;2023-05-25T14:40:29;18.60;99.90
44671;DHT22;48397;53.016;-2.260;2023-05-25T14:42:57;18.60;99.90
44671;DHT22;48397;53.016;-2.260;2023-05-25T14:45:26;18.70;99.90
44671;DHT22;48397;53.016;-2.260;2023-05-25T14:47:55;18.70;99.90
44671;DHT22;48397;53.016;-2.260;2023-05-25T14:50:42;18.70;99.90
44671;DHT22;48397;53.016;-2.260;2023-05-25T14:53:10;18.70;99.90
44671;DHT22;48397;53.016;-2.260;2023-05-25T14:55:42;18.80;99.90
44671;DHT22;48397;53.016;-2.260;2023-05-25T14:58:11;18.70;99.90
44671;DHT22;48397;53.016;-2.260;2023-05-25T15:00:39;18.80;99.90
44671;DHT22;48397;53.016;-2.260;2023-05-25T15:03:06;18.80;99.90
44671;DHT22;48397;53.016;-2.260;2023-05-25T15:05:34;18.80;99.90
44671;DHT22;48397;53.016;-2.260;2023-05-25T15:08:02;19.00;99.90
44671;DHT22;48397;53.016;-2.260;2023-05-25T15:10:30;19.00;99.90
44671;DHT22;48397;53.016;-2.260;2023-05-25T15:12:58;19.10;99.90
44671;DHT22;48397;53.016;-2.260;2023-05-25T15:15:26;19.10;99.90
44671;DHT22;48397;53.016;-2.260;2023-05-25T15:17:54;19.20;99.90
44671;DHT22;48397;53.016;-2.260;2023-05-25T15:20:22;19.20;99.90
44671;DHT22;48397;53.016;-2.260;2023-05-25T15:22:49;19.20;99.90
44671;DHT22;48397;53.016;-2.260;2023-05-25T15:25:20;19.20;99.90
44671;DHT22;48397;53.016;-2.260;2023-05-25T15:28:02;19.10;99.90
44671;DHT22;48397;53.016;-2.260;2023-05-25T15:30:30;19.10;99.90
44671;DHT22;48397;53.016;-2.260;2023-05-25T15:33:00;19.10;99.90
44671;DHT22;48397;53.016;-2.260;2023-05-25T15:35:29;19.00;99.90
44671;DHT22;48397;53.016;-2.260;2023-05-25T15:37:59;19.00;99.90
44671;DHT22;48397;53.016;-2.260;2023-05-25T15:40:27;18.90;99.90
44671;DHT22;48397;53.016;-2.260;2023-05-25T15:42:58;18.90;99.90
44671;DHT22;48397;53.016;-2.260;2023-05-25T15:45:26;18.90;99.90
44671;DHT22;48397;53.016;-2.260;2023-05-25T15:47:55;18.90;99.90
44671;DHT22;48397;53.016;-2.260;2023-05-25T15:50:23;18.90;99.90
44671;DHT22;48397;53.016;-2.260;2023-05-25T15:52:52;18.90;99.90
44671;DHT22;48397;53.016;-2.260;2023-05-25T15:55:23;18.90;99.90